sensor_id;sensor_type;location;lat;lon;timestamp;temperature;humidity
65692;DHT22;52411;52.716;6.696;2023-02-12T00:00:41;7.30;99.90
65692;DHT22;52411;52.716;6.696;2023-02-12T00:03:07;7.20;99.90
65692;DHT22;52411;52.716;6.696;2023-02-12T00:05:33;7.30;99.90
65692;DHT22;52411;52.716;6.696;2023-02-12T00:08:01;7.30;99.90
65692;DHT22;52411;52.716;6.696;2023-02-12T00:10:27;7.20;99.90
65692;DHT22;52411;52.716;6.696;2023-02-12T00:12:53;7.20;99.90
65692;DHT22;52411;52.716;6.696;2023-02-12T00:15:18;7.20;99.90
65692;DHT22;52411;52.716;6.696;2023-02-12T00:17:44;7.20;99.90
65692;DHT22;52411;52.716;6.696;2023-02-12T00:20:10;7.20;99.90
65692;DHT22;52411;52.716;6.696;2023-02-12T00:22:36;7.20;99.90
65692;DHT22;52411;52.716;6.696;2023-02-12T00:25:02;7.20;99.90
65692;DHT22;52411;52.716;6.696;2023-02-12T00:27:27;7.20;99.90
65692;DHT22;52411;52.716;6.696;2023-02-12T00:29:53;7.20;99.90
65692;DHT22;52411;52.716;6.696;2023-02-12T00:32:18;7.20;99.90
65692;DHT22;52411;52.716;6.696;2023-02-12T00:34:45;7.20;99.90
65692;DHT22;52411;52.716;6.696;2023-02-12T00:37:11;7.20;99.90
65692;DHT22;52411;52.716;6.696;2023-02-12T00:39:37;7.20;99.90
65692;DHT22;52411;52.716;6.696;2023-02-12T00:42:04;7.20;99.90
65692;DHT22;52411;52.716;6.696;2023-02-12T00:44:29;7.10;99.90
65692;DHT22;52411;52.716;6.696;2023-02-12T00:46:55;7.10;99.90
65692;DHT22;52411;52.716;6.696;2023-02-12T00:49:22;7.10;99.90
65692;DHT22;52411;52.716;6.696;2023-02-12T00:51:48;7.10;99.90
65692;DHT22;52411;52.716;6.696;2023-02-12T00:54:13;7.00;99.90
65692;DHT22;52411;52.716;6.696;2023-02-12T00:56:40;7.00;99.90
65692;DHT22;52411;52.716;6.696;2023-02-12T00:59:05;7.00;99.90
65692;DHT22;52411;52.716;6.696;2023-02-12T01:01:31;7.00;99.90
65692;DHT22;52411;52.716;6.696;2023-02-12T01:03:57;7.00;99.90
65692;DHT22;52411;52.716;6.696;2023-02-12T01:06:22;7.00;99.90
65692;DHT22;52411;52.716;6.696;2023-02-12T01:08:51;7.00;99.90
65692;DHT22;52411;52.716;6.696;2023-02-12T01:11:18;7.00;99.90
65692;DHT22;52411;52.716;6.696;2023-02-12T01:13:43;7.00;99.90
65692;DHT22;52411;52.716;6.696;2023-02-12T01:16:18;7.00;99.90
65692;DHT22;52411;52.716;6.696;2023-02-12T01:18:45;6.90;99.90
65692;DHT22;52411;52.716;6.696;2023-02-12T01:21:16;7.00;99.90
65692;DHT22;52411;52.716;6.696;2023-02-12T01:23:42;6.90;99.90
65692;DHT22;52411;52.716;6.696;2023-02-12T01:26:09;7.00;99.90
65692;DHT22;52411;52.716;6.696;2023-02-12T01:28:41;7.00;99.90
65692;DHT22;52411;52.716;6.696;2023-02-12T01:31:12;7.00;99.90
65692;DHT22;52411;52.716;6.696;2023-02-12T01:33:38;6.90;99.90
65692;DHT22;52411;52.716;6.696;2023-02-12T01:36:04;6.90;99.90
65692;DHT22;52411;52.716;6.696;2023-02-12T01:38:30;6.90;99.90
65692;DHT22;52411;52.716;6.696;2023-02-12T01:41:07;6.90;99.90
65692;DHT22;52411;52.716;6.696;2023-02-12T01:43:34;6.90;99.90
65692;DHT22;52411;52.716;6.696;2023-02-12T01:46:00;6.90;99.90
65692;DHT22;52411;52.716;6.696;2023-02-12T01:48:29;6.90;99.90
65692;DHT22;52411;52.716;6.696;2023-02-12T01:50:57;6.90;99.90
65692;DHT22;52411;52.716;6.696;2023-02-12T01:53:27;6.90;99.90
65692;DHT22;52411;52.716;6.696;2023-02-12T01:55:57;6.90;99.90
65692;DHT22;52411;52.716;6.696;2023-02-12T01:58:25;6.90;99.90
65692;DHT22;52411;52.716;6.696;2023-02-12T02:00:52;6.90;99.90
65692;DHT22;52411;52.716;6.696;2023-02-12T02:03:17;6.90;99.90
65692;DHT22;52411;52.716;6.696;2023-02-12T02:06:02;6.90;99.90
65692;DHT22;52411;52.716;6.696;2023-02-12T02:08:29;6.90;99.90
65692;DHT22;52411;52.716;6.696;2023-02-12T02:10:55;6.90;99.90
65692;DHT22;52411;52.716;6.696;2023-02-12T02:13:20;6.90;99.90
65692;DHT22;52411;52.716;6.696;2023-02-12T02:16:23;6.90;99.90
65692;DHT22;52411;52.716;6.696;2023-02-12T02:18:56;6.90;99.90
65692;DHT22;52411;52.716;6.696;2023-02-12T02:24:20;6.90;99.90
65692;DHT22;52411;52.716;6.696;2023-02-12T02:32:30;6.90;99.90
65692;DHT22;52411;52.716;6.696;2023-02-12T02:35:07;6.90;99.90
65692;DHT22;52411;52.716;6.696;2023-02-12T02:37:39;6.80;99.90
65692;DHT22;52411;52.716;6.696;2023-02-12T02:41:00;6.80;99.90
65692;DHT22;52411;52.716;6.696;2023-02-12T02:43:06;6.90;99.90
65692;DHT22;52411;52.716;6.696;2023-02-12T02:45:47;6.80;99.90
65692;DHT22;52411;52.716;6.696;2023-02-12T02:48:35;6.80;99.90
65692;DHT22;52411;52.716;6.696;2023-02-12T02:51:17;6.80;99.90
65692;DHT22;52411;52.716;6.696;2023-02-12T02:54:36;6.80;99.90
65692;DHT22;52411;52.716;6.696;2023-02-12T02:57:16;6.80;99.90
65692;DHT22;52411;52.716;6.696;2023-02-12T03:02:39;6.80;99.90
65692;DHT22;52411;52.716;6.696;2023-02-12T03:05:13;6.80;99.90
65692;DHT22;52411;52.716;6.696;2023-02-12T03:08:32;6.80;99.90
65692;DHT22;52411;52.716;6.696;2023-02-12T03:10:54;6.80;99.90
65692;DHT22;52411;52.716;6.696;2023-02-12T03:13:29;6.80;99.90
65692;DHT22;52411;52.716;6.696;2023-02-12T03:16:01;6.80;99.90
65692;DHT22;52411;52.716;6.696;2023-02-12T03:18:36;6.70;99.90
65692;DHT22;52411;52.716;6.696;2023-02-12T03:21:11;6.70;99.90
65692;DHT22;52411;52.716;6.696;2023-02-12T03:24:35;6.80;99.90
65692;DHT22;52411;52.716;6.696;2023-02-12T03:29:27;6.80;99.90
65692;DHT22;52411;52.716;6.696;2023-02-12T03:37:31;6.70;99.90
65692;DHT22;52411;52.716;6.696;2023-02-12T03:42:45;6.70;99.90
65692;DHT22;52411;52.716;6.696;2023-02-12T03:48:39;6.70;99.90
65692;DHT22;52411;52.716;6.696;2023-02-12T03:51:25;6.60;99.90
65692;DHT22;52411;52.716;6.696;2023-02-12T03:53:55;6.60;99.90
65692;DHT22;52411;52.716;6.696;2023-02-12T03:56:26;6.60;99.90
65692;DHT22;52411;52.716;6.696;2023-02-12T03:58:53;6.60;99.90
65692;DHT22;52411;52.716;6.696;2023-02-12T04:01:19;6.60;99.90
65692;DHT22;52411;52.716;6.696;2023-02-12T04:03:45;6.60;99.90
65692;DHT22;52411;52.716;6.696;2023-02-12T04:06:27;6.50;99.90
65692;DHT22;52411;52.716;6.696;2023-02-12T04:08:55;6.60;99.90
65692;DHT22;52411;52.716;6.696;2023-02-12T04:12:09;6.60;99.90
65692;DHT22;52411;52.716;6.696;2023-02-12T04:14:28;6.50;99.90
65692;DHT22;52411;52.716;6.696;2023-02-12T04:17:19;6.50;99.90
65692;DHT22;52411;52.716;6.696;2023-02-12T04:25:30;6.50;99.90
65692;DHT22;52411;52.716;6.696;2023-02-12T04:28:22;6.50;99.90
65692;DHT22;52411;52.716;6.696;2023-02-12T04:31:00;6.40;99.90
65692;DHT22;52411;52.716;6.696;2023-02-12T04:33:49;6.40;99.90
65692;DHT22;52411;52.716;6.696;2023-02-12T04:36:22;6.40;99.90
65692;DHT22;52411;52.716;6.696;2023-02-12T04:38:53;6.40;99.90
65692;DHT22;52411;52.716;6.696;2023-02-12T04:41:20;6.40;99.90
65692;DHT22;52411;52.716;6.696;2023-02-12T04:43:46;6.30;99.90
65692;DHT22;52411;52.716;6.696;2023-02-12T04:46:12;6.30;99.90
65692;DHT22;52411;52.716;6.696;2023-02-12T04:48:55;6.30;99.90
65692;DHT22;52411;52.716;6.696;2023-02-12T04:51:22;6.30;99.90
65692;DHT22;52411;52.716;6.696;2023-02-12T04:53:47;6.30;99.90
65692;DHT22;52411;52.716;6.696;2023-02-12T04:56:13;6.20;99.90
65692;DHT22;52411;52.716;6.696;2023-02-12T04:58:40;6.20;99.90
65692;DHT22;52411;52.716;6.696;2023-02-12T05:01:06;6.20;99.90
65692;DHT22;52411;52.716;6.696;2023-02-12T05:03:32;6.20;99.90
65692;DHT22;52411;52.716;6.696;2023-02-12T05:06:05;6.20;99.90
65692;DHT22;52411;52.716;6.696;2023-02-12T05:08:31;6.20;99.90
65692;DHT22;52411;52.716;6.696;2023-02-12T05:10:56;6.10;99.90
65692;DHT22;52411;52.716;6.696;2023-02-12T05:13:22;6.10;99.90
65692;DHT22;52411;52.716;6.696;2023-02-12T05:15:47;6.10;99.90
65692;DHT22;52411;52.716;6.696;2023-02-12T05:18:13;6.10;99.90
65692;DHT22;52411;52.716;6.696;2023-02-12T05:20:38;6.00;99.90
65692;DHT22;52411;52.716;6.696;2023-02-12T05:23:04;6.00;99.90
65692;DHT22;52411;52.716;6.696;2023-02-12T05:25:30;5.90;99.90
65692;DHT22;52411;52.716;6.696;2023-02-12T05:27:56;5.90;99.90
65692;DHT22;52411;52.716;6.696;2023-02-12T05:30:22;5.90;99.90
65692;DHT22;52411;52.716;6.696;2023-02-12T05:32:47;5.90;99.90
65692;DHT22;52411;52.716;6.696;2023-02-12T05:35:13;5.90;99.90
65692;DHT22;52411;52.716;6.696;2023-02-12T05:37:38;5.90;99.90
65692;DHT22;52411;52.716;6.696;2023-02-12T05:40:05;5.80;99.90
65692;DHT22;52411;52.716;6.696;2023-02-12T05:42:31;5.80;99.90
65692;DHT22;52411;52.716;6.696;2023-02-12T05:44:56;5.80;99.90
65692;DHT22;52411;52.716;6.696;2023-02-12T05:47:22;5.80;99.90
65692;DHT22;52411;52.716;6.696;2023-02-12T05:49:47;5.80;99.90
65692;DHT22;52411;52.716;6.696;2023-02-12T05:52:13;5.90;99.90
65692;DHT22;52411;52.716;6.696;2023-02-12T05:54:38;5.90;99.90
65692;DHT22;52411;52.716;6.696;2023-02-12T05:57:05;5.90;99.90
65692;DHT22;52411;52.716;6.696;2023-02-12T05:59:31;5.90;99.90
65692;DHT22;52411;52.716;6.696;2023-02-12T06:01:58;5.90;99.90
65692;DHT22;52411;52.716;6.696;2023-02-12T06:04:26;5.90;99.90
65692;DHT22;52411;52.716;6.696;2023-02-12T06:06:53;5.90;99.90
65692;DHT22;52411;52.716;6.696;2023-02-12T06:09:20;5.90;99.90
65692;DHT22;52411;52.716;6.696;2023-02-12T06:11:46;5.90;99.90
65692;DHT22;52411;52.716;6.696;2023-02-12T06:14:17;5.80;99.90
65692;DHT22;52411;52.716;6.696;2023-02-12T06:16:48;5.80;99.90
65692;DHT22;52411;52.716;6.696;2023-02-12T06:19:14;5.80;99.90
65692;DHT22;52411;52.716;6.696;2023-02-12T06:21:39;5.90;99.90
65692;DHT22;52411;52.716;6.696;2023-02-12T06:24:05;5.80;99.90
65692;DHT22;52411;52.716;6.696;2023-02-12T06:26:38;5.90;99.90
65692;DHT22;52411;52.716;6.696;2023-02-12T06:29:04;5.80;99.90
65692;DHT22;52411;52.716;6.696;2023-02-12T06:31:32;5.90;99.90
65692;DHT22;52411;52.716;6.696;2023-02-12T06:34:00;5.90;99.90
65692;DHT22;52411;52.716;6.696;2023-02-12T06:36:26;5.90;99.90
65692;DHT22;52411;52.716;6.696;2023-02-12T06:38:52;5.90;99.90
65692;DHT22;52411;52.716;6.696;2023-02-12T06:41:18;5.90;99.90
65692;DHT22;52411;52.716;6.696;2023-02-12T06:43:44;5.90;99.90
65692;DHT22;52411;52.716;6.696;2023-02-12T06:46:09;5.90;99.90
65692;DHT22;52411;52.716;6.696;2023-02-12T06:48:35;5.90;99.90
65692;DHT22;52411;52.716;6.696;2023-02-12T06:51:09;5.90;99.90
65692;DHT22;52411;52.716;6.696;2023-02-12T06:53:35;5.90;99.90
65692;DHT22;52411;52.716;6.696;2023-02-12T06:56:03;5.90;99.90
65692;DHT22;52411;52.716;6.696;2023-02-12T06:58:29;5.90;99.90
65692;DHT22;52411;52.716;6.696;2023-02-12T07:00:54;6.00;99.90
65692;DHT22;52411;52.716;6.696;2023-02-12T07:03:20;6.00;99.90
65692;DHT22;52411;52.716;6.696;2023-02-12T07:05:46;6.00;99.90
65692;DHT22;52411;52.716;6.696;2023-02-12T07:08:13;6.00;99.90
65692;DHT22;52411;52.716;6.696;2023-02-12T07:10:39;6.00;99.90
65692;DHT22;52411;52.716;6.696;2023-02-12T07:13:04;6.00;99.90
65692;DHT22;52411;52.716;6.696;2023-02-12T07:15:30;6.00;99.90
65692;DHT22;52411;52.716;6.696;2023-02-12T07:17:56;6.10;99.90
65692;DHT22;52411;52.716;6.696;2023-02-12T07:20:21;6.10;99.90
65692;DHT22;52411;52.716;6.696;2023-02-12T07:22:47;6.10;99.90
65692;DHT22;52411;52.716;6.696;2023-02-12T07:25:12;6.10;99.90
65692;DHT22;52411;52.716;6.696;2023-02-12T07:27:38;6.10;99.90
65692;DHT22;52411;52.716;6.696;2023-02-12T07:30:05;6.20;99.90
65692;DHT22;52411;52.716;6.696;2023-02-12T07:32:32;6.20;99.90
65692;DHT22;52411;52.716;6.696;2023-02-12T07:34:58;6.20;99.90
65692;DHT22;52411;52.716;6.696;2023-02-12T07:37:24;6.20;99.90
65692;DHT22;52411;52.716;6.696;2023-02-12T07:39:50;6.20;99.90
65692;DHT22;52411;52.716;6.696;2023-02-12T07:42:16;6.30;99.90
65692;DHT22;52411;52.716;6.696;2023-02-12T07:44:42;6.30;99.90
65692;DHT22;52411;52.716;6.696;2023-02-12T07:47:08;6.30;99.90
65692;DHT22;52411;52.716;6.696;2023-02-12T07:49:33;6.30;99.90
65692;DHT22;52411;52.716;6.696;2023-02-12T07:51:59;6.40;99.90
65692;DHT22;52411;52.716;6.696;2023-02-12T07:54:25;6.40;99.90
65692;DHT22;52411;52.716;6.696;2023-02-12T07:56:50;6.40;99.90
65692;DHT22;52411;52.716;6.696;2023-02-12T07:59:17;6.40;99.90
65692;DHT22;52411;52.716;6.696;2023-02-12T08:01:50;6.40;99.90
65692;DHT22;52411;52.716;6.696;2023-02-12T08:04:19;6.40;99.90
65692;DHT22;52411;52.716;6.696;2023-02-12T08:06:47;6.50;99.90
65692;DHT22;52411;52.716;6.696;2023-02-12T08:09:15;6.50;99.90
65692;DHT22;52411;52.716;6.696;2023-02-12T08:11:42;6.50;99.90
65692;DHT22;52411;52.716;6.696;2023-02-12T08:14:11;6.50;99.90
65692;DHT22;52411;52.716;6.696;2023-02-12T08:16:38;6.60;99.90
65692;DHT22;52411;52.716;6.696;2023-02-12T08:19:05;6.60;99.90
65692;DHT22;52411;52.716;6.696;2023-02-12T08:21:31;6.70;99.90
65692;DHT22;52411;52.716;6.696;2023-02-12T08:23:57;6.70;99.90
65692;DHT22;52411;52.716;6.696;2023-02-12T08:29:00;6.70;99.90
65692;DHT22;52411;52.716;6.696;2023-02-12T08:31:31;6.80;99.90
65692;DHT22;52411;52.716;6.696;2023-02-12T08:33:58;6.80;99.90
65692;DHT22;52411;52.716;6.696;2023-02-12T08:36:28;6.90;99.90
65692;DHT22;52411;52.716;6.696;2023-02-12T08:38:57;6.90;99.90
65692;DHT22;52411;52.716;6.696;2023-02-12T08:41:28;6.90;99.90
65692;DHT22;52411;52.716;6.696;2023-02-12T08:43:56;6.90;99.90
65692;DHT22;52411;52.716;6.696;2023-02-12T08:46:24;7.00;99.90
65692;DHT22;52411;52.716;6.696;2023-02-12T08:48:58;7.10;99.90
65692;DHT22;52411;52.716;6.696;2023-02-12T08:51:27;7.20;99.90
65692;DHT22;52411;52.716;6.696;2023-02-12T08:53:55;7.20;99.90
65692;DHT22;52411;52.716;6.696;2023-02-12T08:56:22;7.20;99.90
65692;DHT22;52411;52.716;6.696;2023-02-12T08:58:48;7.30;99.90
65692;DHT22;52411;52.716;6.696;2023-02-12T09:01:20;7.20;99.90
65692;DHT22;52411;52.716;6.696;2023-02-12T09:03:47;7.30;99.90
65692;DHT22;52411;52.716;6.696;2023-02-12T09:06:15;7.40;99.90
65692;DHT22;52411;52.716;6.696;2023-02-12T09:08:41;7.40;99.90
65692;DHT22;52411;52.716;6.696;2023-02-12T09:11:10;7.50;99.90
65692;DHT22;52411;52.716;6.696;2023-02-12T09:13:38;7.60;99.90
65692;DHT22;52411;52.716;6.696;2023-02-12T09:16:05;7.70;99.90
65692;DHT22;52411;52.716;6.696;2023-02-12T09:18:32;7.70;99.90
65692;DHT22;52411;52.716;6.696;2023-02-12T09:21:09;7.70;99.90
65692;DHT22;52411;52.716;6.696;2023-02-12T09:23:36;7.80;99.90
65692;DHT22;52411;52.716;6.696;2023-02-12T09:26:12;7.80;99.90
65692;DHT22;52411;52.716;6.696;2023-02-12T09:28:38;7.90;99.90
65692;DHT22;52411;52.716;6.696;2023-02-12T09:31:12;8.00;99.90
65692;DHT22;52411;52.716;6.696;2023-02-12T09:33:38;8.10;99.90
65692;DHT22;52411;52.716;6.696;2023-02-12T09:36:06;8.10;99.90
65692;DHT22;52411;52.716;6.696;2023-02-12T09:38:33;8.20;99.90
65692;DHT22;52411;52.716;6.696;2023-02-12T09:43:52;8.30;99.90
65692;DHT22;52411;52.716;6.696;2023-02-12T09:46:36;8.30;99.90
65692;DHT22;52411;52.716;6.696;2023-02-12T09:52:13;8.40;99.90
65692;DHT22;52411;52.716;6.696;2023-02-12T09:54:41;8.50;99.90
65692;DHT22;52411;52.716;6.696;2023-02-12T09:57:16;8.50;99.90
65692;DHT22;52411;52.716;6.696;2023-02-12T09:59:53;8.60;99.90
65692;DHT22;52411;52.716;6.696;2023-02-12T10:02:21;8.70;99.90
65692;DHT22;52411;52.716;6.696;2023-02-12T10:04:49;8.70;99.90
65692;DHT22;52411;52.716;6.696;2023-02-12T10:07:36;8.80;99.90
65692;DHT22;52411;52.716;6.696;2023-02-12T10:13:07;8.90;99.90
65692;DHT22;52411;52.716;6.696;2023-02-12T10:15:51;8.90;99.90
65692;DHT22;52411;52.716;6.696;2023-02-12T10:21:13;8.80;99.90
65692;DHT22;52411;52.716;6.696;2023-02-12T10:26:34;8.80;99.90
65692;DHT22;52411;52.716;6.696;2023-02-12T10:29:14;8.80;99.90
65692;DHT22;52411;52.716;6.696;2023-02-12T10:31:43;8.90;99.90
65692;DHT22;52411;52.716;6.696;2023-02-12T10:34:20;9.00;99.90
65692;DHT22;52411;52.716;6.696;2023-02-12T10:36:50;9.10;99.90
65692;DHT22;52411;52.716;6.696;2023-02-12T10:39:24;9.10;99.90
65692;DHT22;52411;52.716;6.696;2023-02-12T10:42:10;9.30;99.90
65692;DHT22;52411;52.716;6.696;2023-02-12T10:44:37;9.40;99.90
65692;DHT22;52411;52.716;6.696;2023-02-12T10:47:03;9.50;99.90
65692;DHT22;52411;52.716;6.696;2023-02-12T10:49:30;9.50;99.90
65692;DHT22;52411;52.716;6.696;2023-02-12T10:52:06;9.60;99.90
65692;DHT22;52411;52.716;6.696;2023-02-12T10:54:45;9.50;99.90
65692;DHT22;52411;52.716;6.696;2023-02-12T10:57:25;9.60;99.90
65692;DHT22;52411;52.716;6.696;2023-02-12T10:59:53;9.70;99.90
65692;DHT22;52411;52.716;6.696;2023-02-12T11:02:31;9.60;99.90
65692;DHT22;52411;52.716;6.696;2023-02-12T11:04:58;9.70;99.90
65692;DHT22;52411;52.716;6.696;2023-02-12T11:07:27;9.70;99.90
65692;DHT22;52411;52.716;6.696;2023-02-12T11:09:55;9.80;99.90
65692;DHT22;52411;52.716;6.696;2023-02-12T11:14:55;9.90;99.90
65692;DHT22;52411;52.716;6.696;2023-02-12T11:20:26;9.90;99.90
65692;DHT22;52411;52.716;6.696;2023-02-12T11:22:57;10.00;99.90
65692;DHT22;52411;52.716;6.696;2023-02-12T11:25:26;10.00;99.90
65692;DHT22;52411;52.716;6.696;2023-02-12T11:28:15;10.00;99.90
65692;DHT22;52411;52.716;6.696;2023-02-12T11:30:59;10.10;99.90
65692;DHT22;52411;52.716;6.696;2023-02-12T11:33:34;10.10;99.90
65692;DHT22;52411;52.716;6.696;2023-02-12T11:36:06;10.20;99.90
65692;DHT22;52411;52.716;6.696;2023-02-12T11:38:39;10.20;99.90
65692;DHT22;52411;52.716;6.696;2023-02-12T11:43:48;10.20;99.90
65692;DHT22;52411;52.716;6.696;2023-02-12T11:46:23;10.20;99.90
65692;DHT22;52411;52.716;6.696;2023-02-12T11:48:50;10.20;99.90
65692;DHT22;52411;52.716;6.696;2023-02-12T11:51:21;10.20;99.90
65692;DHT22;52411;52.716;6.696;2023-02-12T11:53:51;10.20;99.90
65692;DHT22;52411;52.716;6.696;2023-02-12T11:56:18;10.20;99.90
65692;DHT22;52411;52.716;6.696;2023-02-12T11:58:49;10.20;99.90
65692;DHT22;52411;52.716;6.696;2023-02-12T12:04:22;10.20;99.90
65692;DHT22;52411;52.716;6.696;2023-02-12T12:07:01;10.20;99.90
65692;DHT22;52411;52.716;6.696;2023-02-12T12:09:40;10.30;99.90
65692;DHT22;52411;52.716;6.696;2023-02-12T12:12:24;10.30;99.90
65692;DHT22;52411;52.716;6.696;2023-02-12T12:15:30;10.30;99.90
65692;DHT22;52411;52.716;6.696;2023-02-12T12:23:51;10.20;99.90
65692;DHT22;52411;52.716;6.696;2023-02-12T12:26:26;10.20;99.90
65692;DHT22;52411;52.716;6.696;2023-02-12T12:31:44;10.20;99.90
65692;DHT22;52411;52.716;6.696;2023-02-12T12:36:57;10.30;99.90
65692;DHT22;52411;52.716;6.696;2023-02-12T12:40:18;10.30;99.90
65692;DHT22;52411;52.716;6.696;2023-02-12T12:45:24;10.30;99.90
65692;DHT22;52411;52.716;6.696;2023-02-12T12:51:11;10.30;99.90
65692;DHT22;52411;52.716;6.696;2023-02-12T13:16:00;10.30;99.90
65692;DHT22;52411;52.716;6.696;2023-02-12T13:19:05;10.20;99.90
65692;DHT22;52411;52.716;6.696;2023-02-12T13:21:56;10.20;99.90
65692;DHT22;52411;52.716;6.696;2023-02-12T13:24:35;10.20;99.90
65692;DHT22;52411;52.716;6.696;2023-02-12T13:27:13;10.20;99.90
65692;DHT22;52411;52.716;6.696;2023-02-12T13:29:43;10.20;99.90
65692;DHT22;52411;52.716;6.696;2023-02-12T13:32:27;10.20;99.90
65692;DHT22;52411;52.716;6.696;2023-02-12T13:34:55;10.20;99.90
65692;DHT22;52411;52.716;6.696;2023-02-12T13:37:42;10.20;99.90
65692;DHT22;52411;52.716;6.696;2023-02-12T13:40:14;10.20;99.90
65692;DHT22;52411;52.716;6.696;2023-02-12T13:45:47;10.10;99.90
65692;DHT22;52411;52.716;6.696;2023-02-12T13:48:45;10.10;99.90
65692;DHT22;52411;52.716;6.696;2023-02-12T13:54:05;10.00;99.90
65692;DHT22;52411;52.716;6.696;2023-02-12T13:56:47;10.00;99.90
65692;DHT22;52411;52.716;6.696;2023-02-12T14:04:53;9.90;99.90
65692;DHT22;52411;52.716;6.696;2023-02-12T14:07:20;9.90;99.90
65692;DHT22;52411;52.716;6.696;2023-02-12T14:14:55;9.90;99.90
65692;DHT22;52411;52.716;6.696;2023-02-12T14:27:51;9.80;99.90
65692;DHT22;52411;52.716;6.696;2023-02-12T14:40:43;9.70;99.90
65692;DHT22;52411;52.716;6.696;2023-02-12T14:45:49;9.80;99.90
65692;DHT22;52411;52.716;6.696;2023-02-12T14:48:44;9.70;99.90
65692;DHT22;52411;52.716;6.696;2023-02-12T14:51:19;9.70;99.90
65692;DHT22;52411;52.716;6.696;2023-02-12T14:53:46;9.70;99.90
65692;DHT22;52411;52.716;6.696;2023-02-12T14:56:17;9.70;99.90
65692;DHT22;52411;52.716;6.696;2023-02-12T14:58:44;9.70;99.90
65692;DHT22;52411;52.716;6.696;2023-02-12T15:01:10;9.60;99.90
65692;DHT22;52411;52.716;6.696;2023-02-12T15:14:14;9.60;99.90
65692;DHT22;52411;52.716;6.696;2023-02-12T15:16:57;9.60;99.90
65692;DHT22;52411;52.716;6.696;2023-02-12T15:22:29;9.60;99.90
65692;DHT22;52411;52.716;6.696;2023-02-12T15:25:27;9.60;99.90
65692;DHT22;52411;52.716;6.696;2023-02-12T15:28:04;9.60;99.90
65692;DHT22;52411;52.716;6.696;2023-02-12T15:30:35;9.60;99.90
65692;DHT22;52411;52.716;6.696;2023-02-12T15:33:04;9.60;99.90
65692;DHT22;52411;52.716;6.696;2023-02-12T15:35:38;9.60;99.90
65692;DHT22;52411;52.716;6.696;2023-02-12T15:38:08;9.60;99.90
65692;DHT22;52411;52.716;6.696;2023-02-12T15:40:56;9.60;99.90
65692;DHT22;52411;52.716;6.696;2023-02-12T15:43:26;9.60;99.90
65692;DHT22;52411;52.716;6.696;2023-02-12T15:45:52;9.50;99.90
65692;DHT22;52411;52.716;6.696;2023-02-12T15:48:20;9.50;99.90
65692;DHT22;52411;52.716;6.696;2023-02-12T15:51:00;9.50;99.90
65692;DHT22;52411;52.716;6.696;2023-02-12T15:53:28;9.50;99.90
65692;DHT22;52411;52.716;6.696;2023-02-12T15:55:56;9.40;99.90
65692;DHT22;52411;52.716;6.696;2023-02-12T16:01:26;9.40;99.90
65692;DHT22;52411;52.716;6.696;2023-02-12T16:03:54;9.30;99.90
65692;DHT22;52411;52.716;6.696;2023-02-12T16:06:22;9.20;99.90
65692;DHT22;52411;52.716;6.696;2023-02-12T16:11:23;9.20;99.90
65692;DHT22;52411;52.716;6.696;2023-02-12T16:13:53;9.20;99.90
65692;DHT22;52411;52.716;6.696;2023-02-12T16:16:23;9.20;99.90
65692;DHT22;52411;52.716;6.696;2023-02-12T16:19:04;9.20;99.90
65692;DHT22;52411;52.716;6.696;2023-02-12T16:21:34;9.20;99.90
65692;DHT22;52411;52.716;6.696;2023-02-12T16:24:02;9.10;99.90
65692;DHT22;52411;52.716;6.696;2023-02-12T16:26:28;9.10;99.90
65692;DHT22;52411;52.716;6.696;2023-02-12T16:28:55;9.10;99.90
65692;DHT22;52411;52.716;6.696;2023-02-12T16:31:24;9.10;99.90
65692;DHT22;52411;52.716;6.696;2023-02-12T16:33:52;9.00;99.90
65692;DHT22;52411;52.716;6.696;2023-02-12T16:38:51;9.00;99.90
65692;DHT22;52411;52.716;6.696;2023-02-12T16:43:47;9.00;99.90
65692;DHT22;52411;52.716;6.696;2023-02-12T16:46:15;8.90;99.90
65692;DHT22;52411;52.716;6.696;2023-02-12T16:48:43;8.90;99.90
65692;DHT22;52411;52.716;6.696;2023-02-12T16:53:55;8.80;99.90
65692;DHT22;52411;52.716;6.696;2023-02-12T16:56:24;8.80;99.90
65692;DHT22;52411;52.716;6.696;2023-02-12T16:58:53;8.90;99.90
65692;DHT22;52411;52.716;6.696;2023-02-12T17:03:51;8.90;99.90
65692;DHT22;52411;52.716;6.696;2023-02-12T17:06:18;8.90;99.90
65692;DHT22;52411;52.716;6.696;2023-02-12T17:08:44;8.90;99.90
65692;DHT22;52411;52.716;6.696;2023-02-12T17:11:10;8.90;99.90
65692;DHT22;52411;52.716;6.696;2023-02-12T17:13:35;8.90;99.90
65692;DHT22;52411;52.716;6.696;2023-02-12T17:16:02;8.90;99.90
65692;DHT22;52411;52.716;6.696;2023-02-12T17:18:28;8.90;99.90
65692;DHT22;52411;52.716;6.696;2023-02-12T17:20:59;8.90;99.90
65692;DHT22;52411;52.716;6.696;2023-02-12T17:23:26;8.80;99.90
65692;DHT22;52411;52.716;6.696;2023-02-12T17:25:52;8.80;99.90
65692;DHT22;52411;52.716;6.696;2023-02-12T17:28:18;8.80;99.90
65692;DHT22;52411;52.716;6.696;2023-02-12T17:30:44;8.70;99.90
65692;DHT22;52411;52.716;6.696;2023-02-12T17:33:10;8.60;99.90
65692;DHT22;52411;52.716;6.696;2023-02-12T17:35:39;8.60;99.90
65692;DHT22;52411;52.716;6.696;2023-02-12T17:38:05;8.70;99.90
65692;DHT22;52411;52.716;6.696;2023-02-12T17:40:33;8.60;99.90
65692;DHT22;52411;52.716;6.696;2023-02-12T17:42:59;8.60;99.90
65692;DHT22;52411;52.716;6.696;2023-02-12T17:45:24;8.60;99.90
65692;DHT22;52411;52.716;6.696;2023-02-12T17:47:50;8.60;99.90
65692;DHT22;52411;52.716;6.696;2023-02-12T17:50:15;8.60;99.90
65692;DHT22;52411;52.716;6.696;2023-02-12T17:52:42;8.70;99.90
65692;DHT22;52411;52.716;6.696;2023-02-12T17:55:08;8.70;99.90
65692;DHT22;52411;52.716;6.696;2023-02-12T17:57:36;8.70;99.90
65692;DHT22;52411;52.716;6.696;2023-02-12T18:00:04;8.60;99.90
65692;DHT22;52411;52.716;6.696;2023-02-12T18:02:30;8.60;99.90
65692;DHT22;52411;52.716;6.696;2023-02-12T18:04:55;8.70;99.90
65692;DHT22;52411;52.716;6.696;2023-02-12T18:07:21;8.70;99.90
65692;DHT22;52411;52.716;6.696;2023-02-12T18:09:46;8.70;99.90
65692;DHT22;52411;52.716;6.696;2023-02-12T18:12:12;8.70;99.90
65692;DHT22;52411;52.716;6.696;2023-02-12T18:14:38;8.70;99.90
65692;DHT22;52411;52.716;6.696;2023-02-12T18:17:03;8.70;99.90
65692;DHT22;52411;52.716;6.696;2023-02-12T18:19:29;8.70;99.90
65692;DHT22;52411;52.716;6.696;2023-02-12T18:21:55;8.70;99.90
65692;DHT22;52411;52.716;6.696;2023-02-12T18:24:21;8.70;99.90
65692;DHT22;52411;52.716;6.696;2023-02-12T18:26:47;8.70;99.90
65692;DHT22;52411;52.716;6.696;2023-02-12T18:29:12;8.70;99.90
65692;DHT22;52411;52.716;6.696;2023-02-12T18:31:38;8.70;99.90
65692;DHT22;52411;52.716;6.696;2023-02-12T18:34:06;8.60;99.90
65692;DHT22;52411;52.716;6.696;2023-02-12T18:36:32;8.70;99.90
65692;DHT22;52411;52.716;6.696;2023-02-12T18:38:58;8.70;99.90
65692;DHT22;52411;52.716;6.696;2023-02-12T18:41:28;8.60;99.90
65692;DHT22;52411;52.716;6.696;2023-02-12T18:43:57;8.60;99.90
65692;DHT22;52411;52.716;6.696;2023-02-12T18:46:25;8.60;99.90
65692;DHT22;52411;52.716;6.696;2023-02-12T18:48:51;8.60;99.90
65692;DHT22;52411;52.716;6.696;2023-02-12T18:51:19;8.60;99.90
65692;DHT22;52411;52.716;6.696;2023-02-12T18:53:47;8.60;99.90